sensor_id;sensor_type;location;lat;lon;timestamp;temperature;humidity
9919;DHT22;4998;51.024;13.828;2023-06-14T00:01:56;18.60;50.80
9919;DHT22;4998;51.024;13.828;2023-06-14T00:04:23;18.50;50.80
9919;DHT22;4998;51.024;13.828;2023-06-14T00:06:51;18.50;50.80
9919;DHT22;4998;51.024;13.828;2023-06-14T00:09:18;18.40;50.80
9919;DHT22;4998;51.024;13.828;2023-06-14T00:11:45;18.40;50.80
9919;DHT22;4998;51.024;13.828;2023-06-14T00:14:12;18.40;51.00
9919;DHT22;4998;51.024;13.828;2023-06-14T00:16:40;18.30;50.90
9919;DHT22;4998;51.024;13.828;2023-06-14T00:19:09;18.30;51.00
9919;DHT22;4998;51.024;13.828;2023-06-14T00:21:36;18.30;51.10
9919;DHT22;4998;51.024;13.828;2023-06-14T00:24:04;18.20;51.10
9919;DHT22;4998;51.024;13.828;2023-06-14T00:26:31;18.10;51.10
9919;DHT22;4998;51.024;13.828;2023-06-14T00:28:58;18.10;51.30
9919;DHT22;4998;51.024;13.828;2023-06-14T00:31:25;18.00;51.30
9919;DHT22;4998;51.024;13.828;2023-06-14T00:33:52;18.00;51.50
9919;DHT22;4998;51.024;13.828;2023-06-14T00:36:21;17.90;51.60
9919;DHT22;4998;51.024;13.828;2023-06-14T00:38:48;17.90;51.80
9919;DHT22;4998;51.024;13.828;2023-06-14T00:41:15;17.80;51.80
9919;DHT22;4998;51.024;13.828;2023-06-14T00:43:42;17.80;51.90
9919;DHT22;4998;51.024;13.828;2023-06-14T00:46:09;17.70;52.00
9919;DHT22;4998;51.024;13.828;2023-06-14T00:48:36;17.60;51.90
9919;DHT22;4998;51.024;13.828;2023-06-14T00:51:03;17.60;52.10
9919;DHT22;4998;51.024;13.828;2023-06-14T00:53:32;17.50;52.10
9919;DHT22;4998;51.024;13.828;2023-06-14T00:56:01;17.50;52.40
9919;DHT22;4998;51.024;13.828;2023-06-14T00:58:28;17.40;52.30
9919;DHT22;4998;51.024;13.828;2023-06-14T01:00:56;17.40;52.50
9919;DHT22;4998;51.024;13.828;2023-06-14T01:03:23;17.30;52.50
9919;DHT22;4998;51.024;13.828;2023-06-14T01:05:56;17.30;52.70
9919;DHT22;4998;51.024;13.828;2023-06-14T01:08:34;17.20;53.00
9919;DHT22;4998;51.024;13.828;2023-06-14T01:11:09;17.20;53.20
9919;DHT22;4998;51.024;13.828;2023-06-14T01:13:39;17.10;53.30
9919;DHT22;4998;51.024;13.828;2023-06-14T01:16:10;17.10;53.20
9919;DHT22;4998;51.024;13.828;2023-06-14T01:18:37;17.10;53.30
9919;DHT22;4998;51.024;13.828;2023-06-14T01:21:05;17.00;54.00
9919;DHT22;4998;51.024;13.828;2023-06-14T01:23:33;17.00;53.50
9919;DHT22;4998;51.024;13.828;2023-06-14T01:26:00;17.00;53.70
9919;DHT22;4998;51.024;13.828;2023-06-14T01:28:29;17.00;53.70
9919;DHT22;4998;51.024;13.828;2023-06-14T01:31:01;17.00;53.80
9919;DHT22;4998;51.024;13.828;2023-06-14T01:33:31;17.00;53.90
9919;DHT22;4998;51.024;13.828;2023-06-14T01:36:00;17.00;53.90
9919;DHT22;4998;51.024;13.828;2023-06-14T01:38:29;17.00;54.00
9919;DHT22;4998;51.024;13.828;2023-06-14T01:40:58;16.90;54.00
9919;DHT22;4998;51.024;13.828;2023-06-14T01:43:28;16.90;54.10
9919;DHT22;4998;51.024;13.828;2023-06-14T01:45:57;16.90;54.20
9919;DHT22;4998;51.024;13.828;2023-06-14T01:48:25;16.90;54.20
9919;DHT22;4998;51.024;13.828;2023-06-14T01:50:52;16.90;54.20
9919;DHT22;4998;51.024;13.828;2023-06-14T01:53:19;16.90;54.20
9919;DHT22;4998;51.024;13.828;2023-06-14T01:55:47;16.90;54.10
9919;DHT22;4998;51.024;13.828;2023-06-14T01:58:16;16.90;54.40
9919;DHT22;4998;51.024;13.828;2023-06-14T02:00:43;16.90;54.50
9919;DHT22;4998;51.024;13.828;2023-06-14T02:03:11;16.90;54.50
9919;DHT22;4998;51.024;13.828;2023-06-14T02:05:38;16.80;54.60
9919;DHT22;4998;51.024;13.828;2023-06-14T02:08:06;16.80;54.80
9919;DHT22;4998;51.024;13.828;2023-06-14T02:10:33;16.80;54.90
9919;DHT22;4998;51.024;13.828;2023-06-14T02:13:00;16.80;54.90
9919;DHT22;4998;51.024;13.828;2023-06-14T02:15:29;16.70;54.90
9919;DHT22;4998;51.024;13.828;2023-06-14T02:18:00;16.70;55.60
9919;DHT22;4998;51.024;13.828;2023-06-14T02:20:27;16.70;55.00
9919;DHT22;4998;51.024;13.828;2023-06-14T02:22:54;16.60;55.00
9919;DHT22;4998;51.024;13.828;2023-06-14T02:25:21;16.60;55.10
9919;DHT22;4998;51.024;13.828;2023-06-14T02:27:48;16.50;55.20
9919;DHT22;4998;51.024;13.828;2023-06-14T02:30:15;16.50;55.20
9919;DHT22;4998;51.024;13.828;2023-06-14T02:32:44;16.40;55.20
9919;DHT22;4998;51.024;13.828;2023-06-14T02:35:11;16.40;55.40
9919;DHT22;4998;51.024;13.828;2023-06-14T02:37:39;16.30;55.40
9919;DHT22;4998;51.024;13.828;2023-06-14T02:40:07;16.30;55.50
9919;DHT22;4998;51.024;13.828;2023-06-14T02:42:34;16.30;55.70
9919;DHT22;4998;51.024;13.828;2023-06-14T02:45:01;16.20;55.70
9919;DHT22;4998;51.024;13.828;2023-06-14T02:47:29;16.20;55.90
9919;DHT22;4998;51.024;13.828;2023-06-14T02:49:58;16.20;55.90
9919;DHT22;4998;51.024;13.828;2023-06-14T02:52:25;16.20;56.10
9919;DHT22;4998;51.024;13.828;2023-06-14T02:54:52;16.10;56.00
9919;DHT22;4998;51.024;13.828;2023-06-14T02:57:20;16.20;56.20
9919;DHT22;4998;51.024;13.828;2023-06-14T02:59:47;16.20;56.30
9919;DHT22;4998;51.024;13.828;2023-06-14T03:02:14;16.10;56.20
9919;DHT22;4998;51.024;13.828;2023-06-14T03:04:41;16.10;56.20
9919;DHT22;4998;51.024;13.828;2023-06-14T03:07:11;16.10;57.00
9919;DHT22;4998;51.024;13.828;2023-06-14T03:09:39;16.10;56.50
9919;DHT22;4998;51.024;13.828;2023-06-14T03:12:07;16.10;56.50
9919;DHT22;4998;51.024;13.828;2023-06-14T03:14:35;16.10;56.60
9919;DHT22;4998;51.024;13.828;2023-06-14T03:17:02;16.10;56.60
9919;DHT22;4998;51.024;13.828;2023-06-14T03:19:30;16.00;56.70
9919;DHT22;4998;51.024;13.828;2023-06-14T03:21:57;16.00;56.80
9919;DHT22;4998;51.024;13.828;2023-06-14T03:24:26;16.00;56.90
9919;DHT22;4998;51.024;13.828;2023-06-14T03:26:54;16.00;56.80
9919;DHT22;4998;51.024;13.828;2023-06-14T03:29:22;16.00;57.00
9919;DHT22;4998;51.024;13.828;2023-06-14T03:31:59;16.00;57.00
9919;DHT22;4998;51.024;13.828;2023-06-14T03:34:27;16.00;57.40
9919;DHT22;4998;51.024;13.828;2023-06-14T03:36:54;16.00;57.20
9919;DHT22;4998;51.024;13.828;2023-06-14T03:39:21;16.00;57.30
9919;DHT22;4998;51.024;13.828;2023-06-14T03:41:49;16.00;57.40
9919;DHT22;4998;51.024;13.828;2023-06-14T03:44:17;16.00;57.60
9919;DHT22;4998;51.024;13.828;2023-06-14T03:46:44;16.00;57.60
9919;DHT22;4998;51.024;13.828;2023-06-14T03:49:12;16.10;57.60
9919;DHT22;4998;51.024;13.828;2023-06-14T03:51:39;16.10;57.60
9919;DHT22;4998;51.024;13.828;2023-06-14T03:54:06;16.10;57.70
9919;DHT22;4998;51.024;13.828;2023-06-14T03:56:33;16.10;57.90
9919;DHT22;4998;51.024;13.828;2023-06-14T03:59:03;16.10;57.90
9919;DHT22;4998;51.024;13.828;2023-06-14T04:01:29;16.10;58.10
9919;DHT22;4998;51.024;13.828;2023-06-14T04:03:57;16.10;58.00
9919;DHT22;4998;51.024;13.828;2023-06-14T04:06:24;16.20;58.00
9919;DHT22;4998;51.024;13.828;2023-06-14T04:08:59;16.20;58.10
9919;DHT22;4998;51.024;13.828;2023-06-14T04:11:29;16.20;58.10
9919;DHT22;4998;51.024;13.828;2023-06-14T04:13:56;16.20;58.10
9919;DHT22;4998;51.024;13.828;2023-06-14T04:16:25;16.30;58.20
9919;DHT22;4998;51.024;13.828;2023-06-14T04:18:52;16.20;58.20
9919;DHT22;4998;51.024;13.828;2023-06-14T04:21:20;16.30;58.30
9919;DHT22;4998;51.024;13.828;2023-06-14T04:23:49;16.30;58.40
9919;DHT22;4998;51.024;13.828;2023-06-14T04:26:18;16.30;58.50
9919;DHT22;4998;51.024;13.828;2023-06-14T04:28:46;16.30;59.20
9919;DHT22;4998;51.024;13.828;2023-06-14T04:31:13;16.40;58.80
9919;DHT22;4998;51.024;13.828;2023-06-14T04:33:43;16.50;59.00
9919;DHT22;4998;51.024;13.828;2023-06-14T04:36:12;16.60;59.40
9919;DHT22;4998;51.024;13.828;2023-06-14T04:38:39;16.70;59.40
9919;DHT22;4998;51.024;13.828;2023-06-14T04:41:06;16.90;59.50
9919;DHT22;4998;51.024;13.828;2023-06-14T04:43:37;17.10;59.50
9919;DHT22;4998;51.024;13.828;2023-06-14T04:46:05;17.30;59.40
9919;DHT22;4998;51.024;13.828;2023-06-14T04:48:35;17.50;59.30
9919;DHT22;4998;51.024;13.828;2023-06-14T04:51:03;17.70;59.10
9919;DHT22;4998;51.024;13.828;2023-06-14T04:53:31;17.90;59.00
9919;DHT22;4998;51.024;13.828;2023-06-14T04:55:58;18.00;58.80
9919;DHT22;4998;51.024;13.828;2023-06-14T04:58:26;18.10;58.50
9919;DHT22;4998;51.024;13.828;2023-06-14T05:00:54;18.30;58.50
9919;DHT22;4998;51.024;13.828;2023-06-14T05:03:22;18.50;58.40
9919;DHT22;4998;51.024;13.828;2023-06-14T05:05:49;18.60;58.40
9919;DHT22;4998;51.024;13.828;2023-06-14T05:08:20;18.80;58.30
9919;DHT22;4998;51.024;13.828;2023-06-14T05:10:49;18.90;58.00
9919;DHT22;4998;51.024;13.828;2023-06-14T05:13:16;19.00;57.90
9919;DHT22;4998;51.024;13.828;2023-06-14T05:15:43;19.20;57.80
9919;DHT22;4998;51.024;13.828;2023-06-14T05:18:10;19.30;58.30
9919;DHT22;4998;51.024;13.828;2023-06-14T05:20:39;19.40;57.50
9919;DHT22;4998;51.024;13.828;2023-06-14T05:23:08;19.50;57.40
9919;DHT22;4998;51.024;13.828;2023-06-14T05:25:42;19.60;57.50
9919;DHT22;4998;51.024;13.828;2023-06-14T05:28:09;19.70;57.30
9919;DHT22;4998;51.024;13.828;2023-06-14T05:30:37;19.80;57.10
9919;DHT22;4998;51.024;13.828;2023-06-14T05:33:04;19.90;57.00
9919;DHT22;4998;51.024;13.828;2023-06-14T05:35:31;20.00;56.80
9919;DHT22;4998;51.024;13.828;2023-06-14T05:37:58;20.00;56.70
9919;DHT22;4998;51.024;13.828;2023-06-14T05:40:25;20.10;56.70
9919;DHT22;4998;51.024;13.828;2023-06-14T05:42:54;20.10;56.60
9919;DHT22;4998;51.024;13.828;2023-06-14T05:45:21;20.20;56.70
9919;DHT22;4998;51.024;13.828;2023-06-14T05:47:48;20.30;56.80
9919;DHT22;4998;51.024;13.828;2023-06-14T05:50:16;20.40;56.80
9919;DHT22;4998;51.024;13.828;2023-06-14T05:52:43;20.50;56.70
9919;DHT22;4998;51.024;13.828;2023-06-14T05:55:10;20.60;56.50
9919;DHT22;4998;51.024;13.828;2023-06-14T05:57:37;20.80;56.20
9919;DHT22;4998;51.024;13.828;2023-06-14T06:00:08;20.80;55.90
9919;DHT22;4998;51.024;13.828;2023-06-14T06:02:40;20.90;55.80
9919;DHT22;4998;51.024;13.828;2023-06-14T06:05:08;20.90;55.80
9919;DHT22;4998;51.024;13.828;2023-06-14T06:07:35;21.00;55.80
9919;DHT22;4998;51.024;13.828;2023-06-14T06:10:03;21.00;55.70
9919;DHT22;4998;51.024;13.828;2023-06-14T06:12:30;21.10;55.60
9919;DHT22;4998;51.024;13.828;2023-06-14T06:14:58;21.20;55.70
9919;DHT22;4998;51.024;13.828;2023-06-14T06:17:26;21.20;55.70
9919;DHT22;4998;51.024;13.828;2023-06-14T06:19:54;21.30;55.40
9919;DHT22;4998;51.024;13.828;2023-06-14T06:22:21;21.40;55.40
9919;DHT22;4998;51.024;13.828;2023-06-14T06:24:48;21.50;55.40
9919;DHT22;4998;51.024;13.828;2023-06-14T06:27:15;21.60;55.40
9919;DHT22;4998;51.024;13.828;2023-06-14T06:29:44;21.70;55.40
9919;DHT22;4998;51.024;13.828;2023-06-14T06:32:11;21.80;55.20
9919;DHT22;4998;51.024;13.828;2023-06-14T06:34:39;21.90;55.00
9919;DHT22;4998;51.024;13.828;2023-06-14T06:37:06;21.90;54.90
9919;DHT22;4998;51.024;13.828;2023-06-14T06:39:34;22.00;54.90
9919;DHT22;4998;51.024;13.828;2023-06-14T06:42:01;22.10;54.80
9919;DHT22;4998;51.024;13.828;2023-06-14T06:44:28;22.10;54.70
9919;DHT22;4998;51.024;13.828;2023-06-14T06:46:55;22.10;54.50
9919;DHT22;4998;51.024;13.828;2023-06-14T06:49:22;22.20;54.50
9919;DHT22;4998;51.024;13.828;2023-06-14T06:52:01;22.20;54.50
9919;DHT22;4998;51.024;13.828;2023-06-14T06:54:28;22.30;54.50
9919;DHT22;4998;51.024;13.828;2023-06-14T06:56:55;22.30;54.60
9919;DHT22;4998;51.024;13.828;2023-06-14T06:59:22;22.40;54.50
9919;DHT22;4998;51.024;13.828;2023-06-14T07:01:49;22.50;54.50
9919;DHT22;4998;51.024;13.828;2023-06-14T07:04:16;22.60;54.50
9919;DHT22;4998;51.024;13.828;2023-06-14T07:06:46;22.70;54.60
9919;DHT22;4998;51.024;13.828;2023-06-14T07:09:15;22.80;54.40
9919;DHT22;4998;51.024;13.828;2023-06-14T07:11:44;22.90;54.10
9919;DHT22;4998;51.024;13.828;2023-06-14T07:14:11;23.00;53.90
9919;DHT22;4998;51.024;13.828;2023-06-14T07:16:38;23.10;54.50
9919;DHT22;4998;51.024;13.828;2023-06-14T07:19:06;23.10;53.60
9919;DHT22;4998;51.024;13.828;2023-06-14T07:21:34;23.20;53.30
9919;DHT22;4998;51.024;13.828;2023-06-14T07:24:04;23.20;53.20
9919;DHT22;4998;51.024;13.828;2023-06-14T07:26:33;23.30;53.10
9919;DHT22;4998;51.024;13.828;2023-06-14T07:29:01;23.30;52.80
9919;DHT22;4998;51.024;13.828;2023-06-14T07:31:28;23.30;52.60
9919;DHT22;4998;51.024;13.828;2023-06-14T07:33:55;23.40;52.70
9919;DHT22;4998;51.024;13.828;2023-06-14T07:36:22;23.40;52.30
9919;DHT22;4998;51.024;13.828;2023-06-14T07:38:49;23.40;52.00
9919;DHT22;4998;51.024;13.828;2023-06-14T07:41:16;23.40;51.60
9919;DHT22;4998;51.024;13.828;2023-06-14T07:43:44;23.40;51.10
9919;DHT22;4998;51.024;13.828;2023-06-14T07:46:11;23.50;50.90
9919;DHT22;4998;51.024;13.828;2023-06-14T07:48:38;23.50;50.60
9919;DHT22;4998;51.024;13.828;2023-06-14T07:51:06;23.50;50.30
9919;DHT22;4998;51.024;13.828;2023-06-14T07:53:33;23.50;50.20
9919;DHT22;4998;51.024;13.828;2023-06-14T07:56:00;23.50;50.10
9919;DHT22;4998;51.024;13.828;2023-06-14T07:58:28;23.50;49.90
9919;DHT22;4998;51.024;13.828;2023-06-14T08:00:56;23.60;49.80
9919;DHT22;4998;51.024;13.828;2023-06-14T08:03:23;23.50;49.40
9919;DHT22;4998;51.024;13.828;2023-06-14T08:05:50;23.50;49.10
9919;DHT22;4998;51.024;13.828;2023-06-14T08:08:17;23.50;49.00
9919;DHT22;4998;51.024;13.828;2023-06-14T08:10:44;23.50;48.90
9919;DHT22;4998;51.024;13.828;2023-06-14T08:13:11;23.50;48.80
9919;DHT22;4998;51.024;13.828;2023-06-14T08:15:38;23.40;48.60
9919;DHT22;4998;51.024;13.828;2023-06-14T08:18:07;23.40;48.40
9919;DHT22;4998;51.024;13.828;2023-06-14T08:20:34;23.30;48.00
9919;DHT22;4998;51.024;13.828;2023-06-14T08:23:02;23.30;48.00
9919;DHT22;4998;51.024;13.828;2023-06-14T08:25:29;23.20;47.80
9919;DHT22;4998;51.024;13.828;2023-06-14T08:27:57;23.10;47.70
9919;DHT22;4998;51.024;13.828;2023-06-14T08:30:23;23.10;47.40
9919;DHT22;4998;51.024;13.828;2023-06-14T08:32:50;23.00;47.50
9919;DHT22;4998;51.024;13.828;2023-06-14T08:35:22;22.90;47.80
9919;DHT22;4998;51.024;13.828;2023-06-14T08:37:49;22.90;48.20
9919;DHT22;4998;51.024;13.828;2023-06-14T08:40:21;23.00;48.20
9919;DHT22;4998;51.024;13.828;2023-06-14T08:42:50;23.00;47.90
9919;DHT22;4998;51.024;13.828;2023-06-14T08:45:18;23.00;47.70
9919;DHT22;4998;51.024;13.828;2023-06-14T08:47:46;23.00;47.30
9919;DHT22;4998;51.024;13.828;2023-06-14T08:50:19;23.00;47.30
9919;DHT22;4998;51.024;13.828;2023-06-14T08:52:48;22.90;47.30
9919;DHT22;4998;51.024;13.828;2023-06-14T08:55:18;22.90;47.30
9919;DHT22;4998;51.024;13.828;2023-06-14T08:57:47;22.80;47.50
9919;DHT22;4998;51.024;13.828;2023-06-14T09:00:15;22.90;47.40
9919;DHT22;4998;51.024;13.828;2023-06-14T09:02:43;22.80;47.40
9919;DHT22;4998;51.024;13.828;2023-06-14T09:05:10;22.80;47.30
9919;DHT22;4998;51.024;13.828;2023-06-14T09:07:39;22.80;47.30
9919;DHT22;4998;51.024;13.828;2023-06-14T09:10:10;22.80;47.30
9919;DHT22;4998;51.024;13.828;2023-06-14T09:12:38;22.80;46.80
9919;DHT22;4998;51.024;13.828;2023-06-14T09:15:07;22.80;46.90
9919;DHT22;4998;51.024;13.828;2023-06-14T09:17:34;22.70;47.00
9919;DHT22;4998;51.024;13.828;2023-06-14T09:20:02;22.70;47.10
9919;DHT22;4998;51.024;13.828;2023-06-14T09:22:35;22.70;47.00
9919;DHT22;4998;51.024;13.828;2023-06-14T09:25:02;22.80;47.10
9919;DHT22;4998;51.024;13.828;2023-06-14T09:27:31;22.80;46.90
9919;DHT22;4998;51.024;13.828;2023-06-14T09:29:58;22.90;47.00
9919;DHT22;4998;51.024;13.828;2023-06-14T09:32:25;22.90;47.20
9919;DHT22;4998;51.024;13.828;2023-06-14T09:34:52;23.00;47.30
9919;DHT22;4998;51.024;13.828;2023-06-14T09:37:29;23.10;47.40
9919;DHT22;4998;51.024;13.828;2023-06-14T09:39:57;23.10;47.10
9919;DHT22;4998;51.024;13.828;2023-06-14T09:42:24;23.20;47.20
9919;DHT22;4998;51.024;13.828;2023-06-14T09:44:54;23.20;47.40
9919;DHT22;4998;51.024;13.828;2023-06-14T09:47:21;23.20;47.30
9919;DHT22;4998;51.024;13.828;2023-06-14T09:49:49;23.30;47.30
9919;DHT22;4998;51.024;13.828;2023-06-14T09:52:18;23.30;47.40
9919;DHT22;4998;51.024;13.828;2023-06-14T09:54:47;23.40;47.40
9919;DHT22;4998;51.024;13.828;2023-06-14T09:57:15;23.40;47.40
9919;DHT22;4998;51.024;13.828;2023-06-14T09:59:44;23.50;47.30
9919;DHT22;4998;51.024;13.828;2023-06-14T10:02:22;23.50;47.30
9919;DHT22;4998;51.024;13.828;2023-06-14T10:04:56;23.50;47.10
9919;DHT22;4998;51.024;13.828;2023-06-14T10:07:26;23.50;47.40
9919;DHT22;4998;51.024;13.828;2023-06-14T10:09:56;23.60;47.60
9919;DHT22;4998;51.024;13.828;2023-06-14T10:12:23;23.70;47.40
9919;DHT22;4998;51.024;13.828;2023-06-14T10:14:52;23.70;47.10
9919;DHT22;4998;51.024;13.828;2023-06-14T10:17:26;23.70;46.90
9919;DHT22;4998;51.024;13.828;2023-06-14T10:20:07;23.70;46.80
9919;DHT22;4998;51.024;13.828;2023-06-14T10:22:42;23.70;46.70
9919;DHT22;4998;51.024;13.828;2023-06-14T10:25:13;23.70;46.80
9919;DHT22;4998;51.024;13.828;2023-06-14T10:27:52;23.80;46.70
9919;DHT22;4998;51.024;13.828;2023-06-14T10:30:25;23.80;46.60
9919;DHT22;4998;51.024;13.828;2023-06-14T10:33:08;23.80;46.60
9919;DHT22;4998;51.024;13.828;2023-06-14T10:35:35;23.80;46.50
9919;DHT22;4998;51.024;13.828;2023-06-14T10:38:09;23.80;46.40
9919;DHT22;4998;51.024;13.828;2023-06-14T10:40:39;23.80;46.10
9919;DHT22;4998;51.024;13.828;2023-06-14T10:43:22;23.70;46.10
9919;DHT22;4998;51.024;13.828;2023-06-14T10:46:12;23.70;46.20
9919;DHT22;4998;51.024;13.828;2023-06-14T10:48:42;23.60;46.30
9919;DHT22;4998;51.024;13.828;2023-06-14T10:51:16;23.50;46.30
9919;DHT22;4998;51.024;13.828;2023-06-14T10:53:46;23.50;46.60
9919;DHT22;4998;51.024;13.828;2023-06-14T10:56:26;23.40;46.70
9919;DHT22;4998;51.024;13.828;2023-06-14T10:58:54;23.50;46.80
9919;DHT22;4998;51.024;13.828;2023-06-14T11:01:32;23.50;46.80
9919;DHT22;4998;51.024;13.828;2023-06-14T11:04:08;23.60;46.90
9919;DHT22;4998;51.024;13.828;2023-06-14T11:06:47;23.70;46.80
9919;DHT22;4998;51.024;13.828;2023-06-14T11:09:46;23.70;46.70
9919;DHT22;4998;51.024;13.828;2023-06-14T11:12:18;23.80;46.80
9919;DHT22;4998;51.024;13.828;2023-06-14T11:14:46;23.80;46.80
9919;DHT22;4998;51.024;13.828;2023-06-14T11:17:14;23.80;46.80
9919;DHT22;4998;51.024;13.828;2023-06-14T11:19:43;23.80;46.90
9919;DHT22;4998;51.024;13.828;2023-06-14T11:22:10;23.80;46.90
9919;DHT22;4998;51.024;13.828;2023-06-14T11:24:37;23.70;46.80
9919;DHT22;4998;51.024;13.828;2023-06-14T11:27:05;23.70;46.90
9919;DHT22;4998;51.024;13.828;2023-06-14T11:29:32;23.60;46.90
9919;DHT22;4998;51.024;13.828;2023-06-14T11:31:59;23.50;47.00
9919;DHT22;4998;51.024;13.828;2023-06-14T11:34:26;23.50;47.10
9919;DHT22;4998;51.024;13.828;2023-06-14T11:36:54;23.40;47.20
9919;DHT22;4998;51.024;13.828;2023-06-14T11:39:25;23.40;47.30
9919;DHT22;4998;51.024;13.828;2023-06-14T11:41:52;23.30;47.30
9919;DHT22;4998;51.024;13.828;2023-06-14T11:44:20;23.40;47.50
9919;DHT22;4998;51.024;13.828;2023-06-14T11:46:47;23.40;47.60
9919;DHT22;4998;51.024;13.828;2023-06-14T11:49:16;23.40;47.70
9919;DHT22;4998;51.024;13.828;2023-06-14T11:51:43;23.50;47.90
9919;DHT22;4998;51.024;13.828;2023-06-14T11:54:12;23.60;48.10
9919;DHT22;4998;51.024;13.828;2023-06-14T11:56:39;23.70;48.30
9919;DHT22;4998;51.024;13.828;2023-06-14T11:59:06;23.70;48.10
9919;DHT22;4998;51.024;13.828;2023-06-14T12:01:36;23.80;48.00
9919;DHT22;4998;51.024;13.828;2023-06-14T12:04:03;23.80;47.90
9919;DHT22;4998;51.024;13.828;2023-06-14T12:06:31;23.90;48.00
9919;DHT22;4998;51.024;13.828;2023-06-14T12:09:05;23.90;47.80
9919;DHT22;4998;51.024;13.828;2023-06-14T12:11:39;24.00;47.80
9919;DHT22;4998;51.024;13.828;2023-06-14T12:14:08;23.90;47.60
9919;DHT22;4998;51.024;13.828;2023-06-14T12:16:38;23.90;47.40
9919;DHT22;4998;51.024;13.828;2023-06-14T12:19:11;23.80;47.30
9919;DHT22;4998;51.024;13.828;2023-06-14T12:21:38;23.70;47.30
9919;DHT22;4998;51.024;13.828;2023-06-14T12:24:06;23.70;47.30
9919;DHT22;4998;51.024;13.828;2023-06-14T12:26:37;23.70;47.40
9919;DHT22;4998;51.024;13.828;2023-06-14T12:29:06;23.60;47.70
9919;DHT22;4998;51.024;13.828;2023-06-14T12:31:34;23.50;47.70
9919;DHT22;4998;51.024;13.828;2023-06-14T12:34:01;23.50;48.00
9919;DHT22;4998;51.024;13.828;2023-06-14T12:36:28;23.50;48.20
9919;DHT22;4998;51.024;13.828;2023-06-14T12:38:55;23.50;48.40
9919;DHT22;4998;51.024;13.828;2023-06-14T12:41:22;23.50;48.50
9919;DHT22;4998;51.024;13.828;2023-06-14T12:43:50;23.50;48.60
9919;DHT22;4998;51.024;13.828;2023-06-14T12:46:18;23.50;48.70
9919;DHT22;4998;51.024;13.828;2023-06-14T12:48:46;23.60;48.60
9919;DHT22;4998;51.024;13.828;2023-06-14T12:51:13;23.60;48.60
9919;DHT22;4998;51.024;13.828;2023-06-14T12:53:40;23.70;48.70
9919;DHT22;4998;51.024;13.828;2023-06-14T12:56:07;23.80;48.90
9919;DHT22;4998;51.024;13.828;2023-06-14T12:58:34;23.80;48.90
9919;DHT22;4998;51.024;13.828;2023-06-14T13:01:01;23.80;48.60
9919;DHT22;4998;51.024;13.828;2023-06-14T13:03:29;23.80;48.50
9919;DHT22;4998;51.024;13.828;2023-06-14T13:05:59;23.80;48.50
9919;DHT22;4998;51.024;13.828;2023-06-14T13:08:26;23.80;48.40
9919;DHT22;4998;51.024;13.828;2023-06-14T13:10:53;23.90;48.40
9919;DHT22;4998;51.024;13.828;2023-06-14T13:13:20;23.80;48.40
9919;DHT22;4998;51.024;13.828;2023-06-14T13:15:47;23.80;48.40
9919;DHT22;4998;51.024;13.828;2023-06-14T13:18:15;23.90;48.30
9919;DHT22;4998;51.024;13.828;2023-06-14T13:20:45;23.90;48.10
9919;DHT22;4998;51.024;13.828;2023-06-14T13:23:12;24.00;48.30
9919;DHT22;4998;51.024;13.828;2023-06-14T13:25:39;24.00;48.50
9919;DHT22;4998;51.024;13.828;2023-06-14T13:28:06;24.10;48.60
9919;DHT22;4998;51.024;13.828;2023-06-14T13:30:33;24.10;48.60
9919;DHT22;4998;51.024;13.828;2023-06-14T13:33:01;24.20;48.50
9919;DHT22;4998;51.024;13.828;2023-06-14T13:35:28;24.30;48.30
9919;DHT22;4998;51.024;13.828;2023-06-14T13:37:56;24.30;48.20
9919;DHT22;4998;51.024;13.828;2023-06-14T13:40:23;24.20;47.90
9919;DHT22;4998;51.024;13.828;2023-06-14T13:42:50;24.10;47.80
9919;DHT22;4998;51.024;13.828;2023-06-14T13:45:17;24.00;47.80
9919;DHT22;4998;51.024;13.828;2023-06-14T13:47:44;24.00;47.90
9919;DHT22;4998;51.024;13.828;2023-06-14T13:50:14;24.00;47.80
9919;DHT22;4998;51.024;13.828;2023-06-14T13:52:41;24.00;47.70
9919;DHT22;4998;51.024;13.828;2023-06-14T13:55:10;24.00;47.90
9919;DHT22;4998;51.024;13.828;2023-06-14T13:57:37;24.00;47.80
9919;DHT22;4998;51.024;13.828;2023-06-14T14:00:05;24.10;48.00
9919;DHT22;4998;51.024;13.828;2023-06-14T14:02:34;24.20;47.80
9919;DHT22;4998;51.024;13.828;2023-06-14T14:05:01;24.30;47.70
9919;DHT22;4998;51.024;13.828;2023-06-14T14:07:28;24.30;47.40
9919;DHT22;4998;51.024;13.828;2023-06-14T14:09:55;24.40;47.30
9919;DHT22;4998;51.024;13.828;2023-06-14T14:12:24;24.50;47.30
9919;DHT22;4998;51.024;13.828;2023-06-14T14:14:51;24.50;47.20
9919;DHT22;4998;51.024;13.828;2023-06-14T14:17:18;24.50;47.30
9919;DHT22;4998;51.024;13.828;2023-06-14T14:19:45;24.40;47.00
9919;DHT22;4998;51.024;13.828;2023-06-14T14:22:12;24.40;47.30
9919;DHT22;4998;51.024;13.828;2023-06-14T14:24:39;24.50;47.50
9919;DHT22;4998;51.024;13.828;2023-06-14T14:27:06;24.50;47.50
9919;DHT22;4998;51.024;13.828;2023-06-14T14:29:34;24.50;47.60
9919;DHT22;4998;51.024;13.828;2023-06-14T14:32:01;24.60;47.40
9919;DHT22;4998;51.024;13.828;2023-06-14T14:34:29;24.60;47.50
9919;DHT22;4998;51.024;13.828;2023-06-14T14:36:56;24.70;47.10
9919;DHT22;4998;51.024;13.828;2023-06-14T14:39:23;24.80;46.70
9919;DHT22;4998;51.024;13.828;2023-06-14T14:41:50;24.80;46.30
9919;DHT22;4998;51.024;13.828;2023-06-14T14:44:17;24.80;46.20
9919;DHT22;4998;51.024;13.828;2023-06-14T14:46:46;24.80;45.60
9919;DHT22;4998;51.024;13.828;2023-06-14T14:49:13;24.80;45.50
9919;DHT22;4998;51.024;13.828;2023-06-14T14:51:40;24.90;45.50
9919;DHT22;4998;51.024;13.828;2023-06-14T14:54:07;24.90;45.40
9919;DHT22;4998;51.024;13.828;2023-06-14T14:56:34;25.00;45.10
9919;DHT22;4998;51.024;13.828;2023-06-14T14:59:03;25.00;44.90
9919;DHT22;4998;51.024;13.828;2023-06-14T15:01:30;25.00;44.70
9919;DHT22;4998;51.024;13.828;2023-06-14T15:03:59;25.00;44.60
9919;DHT22;4998;51.024;13.828;2023-06-14T15:06:26;25.00;44.50
9919;DHT22;4998;51.024;13.828;2023-06-14T15:08:53;25.10;44.70
9919;DHT22;4998;51.024;13.828;2023-06-14T15:11:20;25.20;44.30
9919;DHT22;4998;51.024;13.828;2023-06-14T15:13:48;25.20;44.00
9919;DHT22;4998;51.024;13.828;2023-06-14T15:16:16;25.40;44.00
9919;DHT22;4998;51.024;13.828;2023-06-14T15:18:43;25.40;44.00
9919;DHT22;4998;51.024;13.828;2023-06-14T15:21:12;25.50;44.10
9919;DHT22;4998;51.024;13.828;2023-06-14T15:23:39;25.60;43.90
9919;DHT22;4998;51.024;13.828;2023-06-14T15:26:06;25.70;44.10
9919;DHT22;4998;51.024;13.828;2023-06-14T15:28:33;25.80;43.90
9919;DHT22;4998;51.024;13.828;2023-06-14T15:31:00;25.90;43.60
9919;DHT22;4998;51.024;13.828;2023-06-14T15:33:27;25.90;43.50
9919;DHT22;4998;51.024;13.828;2023-06-14T15:35:54;26.00;43.60
9919;DHT22;4998;51.024;13.828;2023-06-14T15:38:22;26.00;43.30
9919;DHT22;4998;51.024;13.828;2023-06-14T15:40:49;26.00;43.00
9919;DHT22;4998;51.024;13.828;2023-06-14T15:43:16;26.00;42.70
9919;DHT22;4998;51.024;13.828;2023-06-14T15:45:43;26.00;42.20
9919;DHT22;4998;51.024;13.828;2023-06-14T15:48:10;25.90;41.80
9919;DHT22;4998;51.024;13.828;2023-06-14T15:50:37;25.90;42.10
9919;DHT22;4998;51.024;13.828;2023-06-14T15:53:04;25.90;41.20